• Join FlightAware (Why Join?)
  • Login
  • US Flag 
Rudolph Flight #1: Arrived! 
06:54AM EST


 

Airport Tracker/Info


-or-


 

Live Flight TrackerFlight Track Log ✈ DAL89 ✈ 15-May-2013 ✈ KSLC - LFPG / CDG

Flight Track Log - Related Links

Times and Time Zones

All times are in EDT time to prevent confusion due to time zone crossing. See the DAL89 flight status page for this flight to view local times or setup timezone preferences in your user account.

Time Position Orientation Groundspeed Altitude Reporting Facility
EDT Latitude Longitude Course Direction KTS MPH feet Rate Location/Type
07:05PM 40.8200 -112.0031 78° East 190 219 5,200  Level Salt Lake Center
07:05PM 40.8547 -112.0056 357° North 199 229 5,900 1,020 Climbing Salt Lake Center
07:06PM 40.8808 -112.0081 356° North 223 257 6,300 1,620 Climbing Salt Lake Center
07:06PM 40.9275 -112.0147 354° North 269 310 7,600 2,220 Climbing Salt Lake Center
07:07PM 40.9583 -112.0172 356° North 273 314 8,600 2,520 Climbing Salt Lake Center
07:08PM 41.0403 -112.0167 360° North 291 335 11,300 2,340 Climbing Salt Lake Center
07:09PM 41.1063 -111.7362 135° Southeast  Level FlightAware Approximate
07:09PM 41.1153 -111.9647 28° Northeast 320 368 13,400  Level Salt Lake Center
07:10PM 41.0177 -111.6106 78° East  Level FlightAware Approximate
07:10PM 41.1222 -111.8447 86° East 340 391 14,800  Level Salt Lake Center
07:11PM 41.0997 -111.7094 102° East 367 422 17,000 2,100 Climbing Salt Lake Center
07:12PM 41.0769 -111.5728 102° East 376 433 19,200 2,040 Climbing Salt Lake Center
07:13PM 41.0525 -111.4339 103° East 386 444 21,300 1,860 Climbing Salt Lake Center
07:14PM 41.0569 -111.2875 88° East 403 464 23,100 1,500 Climbing Salt Lake Center
07:15PM 41.0703 -111.1378 83° East 410 472 24,500 1,560 Climbing Salt Lake Center
07:16PM 41.1361 -110.9725 62° Northeast 427 491 26,300 1,620 Climbing Salt Lake Center
07:17PM 41.1775 -110.8208 70° East 429 494 27,900 1,260 Climbing Salt Lake Center
07:18PM 41.2144 -110.6747 71° East 436 502 29,000 960 Climbing Salt Lake Center
07:19PM 41.2861 -110.5158 59° Northeast 452 520 30,000 660 Climbing Salt Lake Center
07:20PM 41.3497 -110.3783 58° Northeast 456 525 30,400 480 Climbing Salt Lake Center
07:21PM 41.4164 -110.2308 59° Northeast 480 552 31,000 240 Climbing Salt Lake Center
07:22PM 41.4939 -110.0606 59° Northeast 480 552 31,000 240 Level Salt Lake Center
07:23PM 41.5592 -109.9147 59° Northeast 477 549 31,500 960 Climbing Salt Lake Center
07:24PM 41.6339 -109.7464 59° Northeast 472 543 33,000 720 Climbing Salt Lake Center
07:25PM 41.6989 -109.6017 59° Northeast 471 542 33,000  Level Salt Lake Center
07:26PM 41.7639 -109.4542 59° Northeast 475 547 33,000  Level Salt Lake Center
07:28PM 41.8394 -109.2847 59° Northeast 473 544 33,000  Level Salt Lake Center
07:29PM 41.9039 -109.1381 59° Northeast 473 544 33,000  Level Salt Lake Center
07:30PM 41.9783 -108.9658 60° Northeast 475 547 33,000  Level Salt Lake Center
07:31PM 42.0425 -108.8178 60° Northeast 477 549 33,000  Level Salt Lake Center
07:32PM 42.1175 -108.6442 60° Northeast 481 554 33,000  Level Salt Lake Center
07:33PM 42.1831 -108.4939 59° Northeast 484 557 33,000  Level Salt Lake Center
07:34PM 42.2447 -108.3392 62° Northeast 487 560 33,000  Level Salt Lake Center
07:35PM 42.3197 -108.1622 60° Northeast 488 562 33,000  Level Salt Lake Center
07:36PM 42.3839 -108.0097 60° Northeast 487 560 33,000  Level Salt Lake Center
07:37PM 42.4578 -107.8311 61° Northeast 486 559 33,000  Level Salt Lake Center
07:38PM 42.5217 -107.6800 60° Northeast 485 558 33,000  Level Salt Lake Center
07:39PM 42.5947 -107.5036 61° Northeast 481 554 33,000  Level Salt Lake Center
07:40PM 42.6578 -107.3517 61° Northeast 484 557 33,000  Level Salt Lake Center
07:41PM 42.7197 -107.1997 61° Northeast 482 555 33,000  Level Salt Lake Center
07:42PM 42.8139 -106.9689 61° Northeast 481 554 33,000  Level Denver Center
07:43PM 42.8758 -106.8139 61° Northeast 486 559 33,000  Level Denver Center
07:44PM 42.9383 -106.6603 61° Northeast 486 559 33,000  Level Denver Center
07:45PM 43.0106 -106.4775 62° Northeast 488 562 33,000  Level Denver Center
07:46PM 43.0733 -106.3214 61° Northeast 488 562 33,000  Level Denver Center
07:47PM 43.1528 -106.1461 58° Northeast 486 559 33,000  Level Denver Center
07:48PM 43.2214 -105.9969 58° Northeast 483 556 33,000  Level Denver Center
07:49PM 43.2819 -105.8069 66° East 490 564 33,000 420 Level Denver Center
07:50PM 43.3392 -105.6422 64° Northeast 496 571 33,900 840 Climbing Denver Center
07:51PM 43.4111 -105.4569 62° Northeast 492 566 34,800 480 Climbing Denver Center
07:53PM 43.4761 -105.2953 61° Northeast 498 573 35,000 60 Climbing Denver Center
07:54PM 43.5478 -105.1414 57° Northeast 498 573 35,000  Level Denver Center
07:55PM 43.6286 -104.9600 58° Northeast 496 571 35,000  Level Denver Center
07:56PM 43.6964 -104.8072 58° Northeast 490 564 35,000  Level Denver Center
07:57PM 43.7744 -104.6283 59° Northeast 486 559 35,000  Level Denver Center
07:58PM 43.8425 -104.4758 58° Northeast 485 558 35,000  Level Denver Center
07:59PM 43.9314 -104.2683 59° Northeast 488 562 35,000  Level Denver Center
08:00PM 43.9992 -104.1128 59° Northeast 491 565 35,000  Level Denver Center
08:01PM 44.0794 -103.9269 59° Northeast 501 577 35,000  Level Denver Center
08:02PM 44.1467 -103.7669 60° Northeast 502 578 35,000  Level Denver Center
08:03PM 44.2267 -103.5797 59° Northeast 502 578 35,000  Level Denver Center
08:04PM 44.2933 -103.4181 60° Northeast 503 579 35,000  Level Denver Center
08:05PM 44.3742 -103.2283 59° Northeast 507 583 35,000  Level Denver Center
08:06PM 44.4386 -103.0733 60° Northeast 508 585 35,000  Level Denver Center
08:07PM 44.5100 -102.9036 59° Northeast 506 582 35,000  Level Denver Center
08:08PM 44.5786 -102.7317 61° Northeast 506 582 35,000  Level Denver Center
08:09PM 44.6497 -102.5633 59° Northeast 502 578 35,000  Level Denver Center
08:10PM 44.7328 -102.3589 60° Northeast 502 578 35,000  Level Denver Center
08:11PM 44.8008 -102.1883 61° Northeast 500 575 35,000  Level Denver Center
08:12PM 44.8564 -102.0514 60° Northeast 500 575 35,000  Level Minneapolis Center
08:13PM 44.9250 -101.8803 60° Northeast 501 577 35,000  Level Minneapolis Center
08:14PM 44.9889 -101.7075 62° Northeast 499 574 35,000  Level Minneapolis Center
08:15PM 45.0700 -101.5028 61° Northeast 497 572 35,000  Level Minneapolis Center
08:16PM 45.1378 -101.3314 61° Northeast 497 572 35,000  Level Minneapolis Center
08:17PM 45.2064 -101.1592 60° Northeast 499 574 35,000  Level Minneapolis Center
08:19PM 45.2917 -100.9497 60° Northeast 506 582 35,000  Level Minneapolis Center
08:20PM 45.3575 -100.7758 62° Northeast 500 575 35,000  Level Minneapolis Center
08:21PM 45.4367 -100.5656 62° Northeast 499 574 35,000  Level Minneapolis Center
08:22PM 45.5036 -100.3914 61° Northeast 498 573 35,000  Level Minneapolis Center
08:23PM 45.5686 -100.2161 62° Northeast 496 571 35,000  Level Minneapolis Center
08:24PM 45.6339 -100.0414 62° Northeast 494 568 35,000  Level Minneapolis Center
08:25PM 45.6994 -99.8683 61° Northeast 493 567 35,000  Level Minneapolis Center
08:26PM 45.7628 -99.6956 62° Northeast 490 564 35,000  Level Minneapolis Center
08:27PM 45.8392 -99.4864 62° Northeast 491 565 35,000  Level Minneapolis Center
08:28PM 45.9019 -99.3136 62° Northeast 490 564 35,000  Level Minneapolis Center
08:29PM 45.9650 -99.1411 62° Northeast 488 562 35,000  Level Minneapolis Center
08:30PM 46.0269 -98.9714 62° Northeast 484 557 35,000  Level Minneapolis Center
08:31PM 46.0992 -98.7742 62° Northeast 480 552 35,000  Level Minneapolis Center
08:32PM 46.1469 -98.6378 63° Northeast 479 551 35,000  Level Minneapolis Center
08:33PM 46.2317 -98.3967 63° Northeast 482 555 35,000  Level Minneapolis Center
08:34PM 46.2914 -98.2239 63° Northeast 483 556 35,000  Level Minneapolis Center
08:36PM 46.3506 -98.0456 64° Northeast 491 565 35,000  Level Minneapolis Center
08:37PM 46.4228 -97.8358 63° Northeast 488 562 35,000  Level Minneapolis Center
08:38PM 46.4819 -97.6608 64° Northeast 488 562 35,000  Level Minneapolis Center
08:39PM 46.5550 -97.4489 63° Northeast 491 565 35,000  Level Minneapolis Center
08:40PM 46.6139 -97.2717 64° Northeast 491 565 35,000  Level Minneapolis Center
08:41PM 46.6739 -97.0939 64° Northeast 492 566 35,000  Level Minneapolis Center
08:42PM 46.7339 -96.9119 64° Northeast 500 575 35,000  Level Minneapolis Center
08:43PM 46.7839 -96.7272 68° East 494 568 35,000  Level Minneapolis Center
08:44PM 46.8378 -96.4986 71° East 499 574 35,000  Level Minneapolis Center
08:45PM 46.8908 -96.2714 71° East 497 572 35,000  Level Minneapolis Center
08:46PM 46.9358 -96.0806 71° East 499 574 35,000  Level Minneapolis Center
08:47PM 46.9794 -95.8892 71° East 498 573 35,000  Level Minneapolis Center
08:48PM 47.0228 -95.7114 70° East 498 573 35,000  Level Minneapolis Center
08:49PM 47.0731 -95.4814 72° East 496 571 35,000  Level Minneapolis Center
08:51PM 47.1172 -95.2889 71° East 498 573 35,000  Level Minneapolis Center
08:52PM 47.1686 -95.0594 72° East 496 571 35,000  Level Minneapolis Center
08:53PM 47.2114 -94.8656 72° East 499 574 35,000  Level Minneapolis Center
08:54PM 47.2619 -94.6322 72° East 501 577 35,000  Level Minneapolis Center
08:55PM 47.3042 -94.4375 72° East 501 577 35,000  Level Minneapolis Center
08:56PM 47.3461 -94.2408 72° East 503 579 35,000  Level Minneapolis Center
08:57PM 47.3889 -94.0428 72° East 506 582 35,000  Level Minneapolis Center
08:58PM 47.4297 -93.8447 73° East 506 582 35,000  Level Minneapolis Center
08:59PM 47.4719 -93.6450 73° East 508 585 35,000  Level Minneapolis Center
09:00PM 47.5144 -93.4425 73° East 510 587 35,000  Level Minneapolis Center
09:01PM 47.5575 -93.2356 73° East 514 592 35,000  Level Minneapolis Center
09:02PM 47.6061 -92.9850 74° East 518 596 35,000  Level Minneapolis Center
09:03PM 47.6469 -92.7792 74° East 517 595 35,000  Level Minneapolis Center
09:04PM 47.6883 -92.5756 73° East 517 595 35,000  Level Minneapolis Center
09:05PM 47.7286 -92.3708 74° East 517 595 35,000  Level Minneapolis Center
09:06PM 47.7692 -92.1656 74° East 518 596 35,000  Level Minneapolis Center
09:07PM 47.8083 -91.9611 74° East 517 595 35,000  Level Minneapolis Center
09:08PM 47.8464 -91.7556 75° East 516 594 35,000  Level Minneapolis Center
09:09PM 47.8933 -91.5086 74° East 516 594 35,000  Level Minneapolis Center
09:10PM 47.9300 -91.3031 75° East 516 594 35,000  Level Minneapolis Center
09:11PM 47.9597 -91.1397 75° East 514 592 35,000  Level Minneapolis Center
09:12PM 48.0039 -90.8931 75° East 514 592 35,000  Level Minneapolis Center
09:13PM 48.0417 -90.6869 75° East 517 595 35,000  Level Minneapolis Center
09:14PM 48.0800 -90.4650 75° East 518 596 35,000  Level Minneapolis Center
09:15PM 48.1167 -90.2531 75° East 522 601 35,000  Level Minneapolis Center
09:17PM 48.1500 -89.9167 81° East 520 598 35,000  Level Winnipeg Center
09:18PM 48.1833 -89.7167 76° East 520 598 35,000  Level Winnipeg Center
09:19PM 48.2167 -89.5000 77° East 520 598 35,000  Level Winnipeg Center
09:20PM 48.2667 -89.3000 69° East 520 598 35,000  Level Winnipeg Center
09:21PM 48.3000 -89.1000 76° East 520 598 35,000  Level Winnipeg Center
09:22PM 48.3500 -88.8833 71° East 510 587 35,000  Level Winnipeg Center
09:23PM 48.3833 -88.6833 76° East 510 587 35,000  Level Winnipeg Center
09:24PM 48.4167 -88.4667 77° East 510 587 35,000  Level Winnipeg Center
09:25PM 48.4667 -88.2833 68° East 510 587 35,000  Level Winnipeg Center
09:26PM 48.5000 -88.0500 78° East 510 587 35,000  Level Winnipeg Center
09:27PM 48.5333 -87.8667 75° East 510 587 35,000  Level Winnipeg Center
09:28PM 48.5833 -87.6500 71° East 510 587 35,000  Level Winnipeg Center
09:29PM 48.6167 -87.4333 77° East 510 587 35,000  Level Winnipeg Center
09:30PM 48.6500 -87.2500 75° East 510 587 35,000  Level Winnipeg Center
09:31PM 48.7000 -87.0500 69° East 510 587 35,000  Level Winnipeg Center
09:32PM 48.7333 -86.8333 77° East 500 575 35,000  Level Winnipeg Center
09:33PM 48.7667 -86.6500 75° East 500 575 35,000  Level Winnipeg Center
09:34PM 48.8167 -86.4333 71° East 500 575 35,000  Level Winnipeg Center
09:35PM 48.8500 -86.2167 77° East 500 575 35,000  Level Winnipeg Center
09:36PM 48.8833 -86.0000 77° East 510 587 35,000  Level Winnipeg Center
09:37PM 48.9167 -85.8167 74° East 510 587 35,000  Level Winnipeg Center
09:38PM 48.9500 -85.5833 78° East 510 587 35,000  Level Winnipeg Center
09:39PM 49.0000 -85.3833 69° East 510 587 35,000  Level Winnipeg Center
09:40PM 49.0167 -85.1833 83° East 510 587 35,000  Level Winnipeg Center
09:41PM 49.0500 -84.9667 77° East 500 575 35,000  Level Winnipeg Center
09:42PM 49.0833 -84.7833 74° East 500 575 35,000  Level Winnipeg Center
09:42PM 49.1333 -84.7333 33° Northeast 500 575 35,000  Level Montreal Center
09:43PM 49.1167 -84.5667 99° East 500 575 35,000  Level Winnipeg Center
09:43PM 49.1667 -84.5333 24° Northeast 490 564 35,000  Level Montreal Center
09:44PM 49.1500 -84.3667 99° East 500 575 35,000  Level Winnipeg Center
09:45PM 49.2000 -84.1500 70° East 500 575 35,000  Level Winnipeg Center
09:45PM 49.2333 -84.1167 33° Northeast 490 564 35,000  Level Montreal Center
09:46PM 49.2667 -83.9167 76° East 490 564 35,000  Level Montreal Center
09:47PM 49.2833 -83.7167 83° East 490 564 35,000  Level Montreal Center
09:48PM 49.3167 -83.5000 77° East 490 564 35,000  Level Montreal Center
09:49PM 49.3500 -83.3000 76° East 490 564 35,000  Level Montreal Center
09:50PM 49.3833 -83.1000 76° East 490 564 35,000  Level Montreal Center
09:51PM 49.4167 -82.9000 76° East 490 564 35,000  Level Montreal Center
09:52PM 49.4333 -82.7000 83° East 490 564 35,000  Level Montreal Center
09:53PM 49.4667 -82.5000 76° East 490 564 35,000  Level Montreal Center
09:54PM 49.5167 -82.2833 70° East 490 564 35,000  Level Montreal Center
09:55PM 49.5500 -82.0833 76° East 480 552 35,000  Level Montreal Center
09:56PM 49.6000 -81.9167 65° Northeast 480 552 35,000  Level Montreal Center
09:57PM 49.6167 -81.7167 83° East 490 564 35,000  Level Winnipeg Center
09:58PM 49.6667 -81.5333 67° East 490 564 35,000  Level Winnipeg Center
09:59PM 49.7000 -81.3167 77° East 480 552 35,000  Level Winnipeg Center
09:59PM 49.7500 -81.3000 12° North 480 552 35,000  Level Montreal Center
10:00PM 49.7833 -81.1333 73° East 470 541 35,000  Level Montreal Center
10:01PM 49.8333 -80.9167 70° East 470 541 35,000  Level Montreal Center
10:02PM 49.8833 -80.7500 65° Northeast 470 541 35,000  Level Montreal Center
10:03PM 49.9167 -80.5333 76° East 470 541 35,000  Level Montreal Center
10:04PM 49.9667 -80.3333 69° East 470 541 35,000  Level Montreal Center
10:05PM 50.0000 -80.1500 74° East 470 541 35,000  Level Montreal Center
10:06PM 50.0333 -79.9500 75° East 470 541 35,000  Level Montreal Center
10:07PM 50.1000 -79.7667 60° Northeast 470 541 35,000  Level Montreal Center
10:08PM 50.1500 -79.5833 67° East 460 529 35,000  Level Montreal Center
10:09PM 50.2167 -79.4167 58° Northeast 460 529 35,000  Level Montreal Center
10:10PM 50.2833 -79.2333 60° Northeast 460 529 35,000  Level Montreal Center
10:11PM 50.3333 -79.0500 67° East 460 529 35,000  Level Montreal Center
10:12PM 50.4000 -78.8667 60° Northeast 460 529 35,000  Level Montreal Center
10:13PM 50.4500 -78.6833 67° East 460 529 35,000  Level Montreal Center
10:14PM 50.5000 -78.5000 67° East 460 529 35,000  Level Montreal Center
10:15PM 50.5500 -78.3167 67° East 460 529 35,000  Level Montreal Center
10:16PM 50.6333 -78.1333 54° Northeast 460 529 35,000  Level Montreal Center
10:17PM 50.6833 -77.9500 67° East 460 529 35,000  Level Montreal Center
10:18PM 50.7333 -77.8000 62° Northeast 460 529 35,000  Level Montreal Center
10:19PM 50.7833 -77.5833 70° East 450 518 35,000  Level Montreal Center
10:20PM 50.8333 -77.4333 62° Northeast 450 518 35,000  Level Montreal Center
10:21PM 50.9000 -77.2500 60° Northeast 450 518 35,000  Level Montreal Center
10:22PM 50.9500 -77.0667 67° East 460 529 35,000  Level Montreal Center
10:23PM 51.0000 -76.8667 68° East 450 518 35,000  Level Montreal Center
10:24PM 51.0500 -76.6833 66° East 460 529 35,000  Level Montreal Center
10:25PM 51.1000 -76.5000 66° East 450 518 35,000  Level Montreal Center
10:26PM 51.1667 -76.3167 60° Northeast 460 529 35,000  Level Montreal Center
10:27PM 51.2167 -76.1333 66° East 460 529 35,000  Level Montreal Center
10:28PM 51.2667 -75.9333 68° East 460 529 35,000  Level Montreal Center
10:29PM 51.3167 -75.7500 66° East 460 529 35,000  Level Montreal Center
10:30PM 51.3667 -75.5667 66° East 460 529 35,000  Level Montreal Center
10:31PM 51.4167 -75.3667 68° East 460 529 35,000  Level Montreal Center
10:32PM 51.4833 -75.1833 60° Northeast 460 529 35,000  Level Montreal Center
10:33PM 51.5333 -75.0167 64° Northeast 460 529 35,000  Level Montreal Center
10:34PM 51.5833 -74.8333 66° East 450 518 35,000  Level Montreal Center
10:35PM 51.6333 -74.6333 68° East 460 529 35,000  Level Montreal Center
10:36PM 51.6833 -74.4500 66° East 450 518 35,000  Level Montreal Center
10:37PM 51.7333 -74.2500 68° East 450 518 35,000  Level Montreal Center
10:38PM 51.7833 -74.0667 66° East 450 518 35,000  Level Montreal Center
10:39PM 51.8167 -73.8667 75° East 450 518 35,000  Level Montreal Center
10:40PM 51.8667 -73.6667 68° East 450 518 35,000  Level Montreal Center
10:41PM 51.9167 -73.5000 64° Northeast 450 518 35,000  Level Montreal Center
10:42PM 51.9833 -73.3167 59° Northeast 450 518 35,000  Level Montreal Center
10:43PM 52.0333 -73.1167 68° East 460 529 35,000  Level Montreal Center
10:44PM 52.0667 -72.9167 75° East 460 529 35,000  Level Montreal Center
10:45PM 52.1167 -72.7333 66° East 460 529 35,000  Level Montreal Center
10:46PM 52.1667 -72.5000 71° East 470 541 35,000  Level Montreal Center
10:47PM 52.2000 -72.3333 72° East 470 541 35,000  Level Montreal Center
10:48PM 52.2500 -72.1333 68° East 470 541 35,000  Level Montreal Center
10:49PM 52.3167 -71.9500 59° Northeast 470 541 35,000  Level Montreal Center
10:50PM 52.3500 -71.7167 77° East 480 552 35,000  Level Montreal Center
10:51PM 52.4000 -71.5000 69° East 480 552 35,000  Level Montreal Center
10:52PM 52.4500 -71.3000 68° East 480 552 35,000  Level Montreal Center
10:53PM 52.5000 -71.1000 68° East 480 552 35,000  Level Montreal Center
10:54PM 52.5333 -70.9000 75° East 480 552 35,000  Level Montreal Center
10:55PM 52.6000 -70.6667 65° Northeast 480 552 35,000  Level Montreal Center
10:56PM 52.6333 -70.4667 75° East 480 552 35,000  Level Montreal Center
10:57PM 52.6833 -70.2667 68° East 480 552 35,000  Level Montreal Center
10:58PM 52.7333 -70.0667 67° East 480 552 35,000  Level Montreal Center
10:59PM 52.7833 -69.8667 67° East 480 552 35,000  Level Montreal Center
11:00PM 52.8333 -69.6667 67° East 480 552 35,000  Level Montreal Center
11:01PM 52.8833 -69.4500 69° East 480 552 35,000  Level Montreal Center
11:02PM 52.9500 -69.2500 61° Northeast 480 552 35,000  Level Montreal Center
11:03PM 53.0167 -69.0500 61° Northeast 480 552 35,000  Level Montreal Center
11:04PM 53.0333 -69.0167 50° Northeast 480 552 35,000  Level Gander Center
11:04PM 53.0667 -68.8333 73° East 480 552 35,000  Level Montreal Center
11:05PM 53.1333 -68.6333 61° Northeast 480 552 35,000  Level Montreal Center
11:06PM 53.1333 -68.6167 90° East 480 552 35,000  Level Gander Center
11:07PM 53.1833 -68.4000 69° East 480 552 35,000  Level Gander Center
11:07PM 53.2333 -68.2500 61° Northeast 480 552 35,000  Level Montreal Center
11:08PM 53.3000 -68.0333 63° Northeast 470 541 35,000  Level Montreal Center
11:09PM 53.3333 -67.8333 74° East 470 541 35,000  Level Montreal Center
11:10PM 53.3833 -67.6167 69° East 470 541 35,000  Level Montreal Center
11:11PM 53.4333 -67.4167 67° East 480 552 35,000  Level Montreal Center
11:12PM 53.4833 -67.2000 69° East 480 552 35,000  Level Montreal Center
11:13PM 53.5333 -67.0000 67° East 490 564 35,000  Level Montreal Center
11:14PM 53.6000 -66.7833 63° Northeast 490 564 35,000  Level Montreal Center
11:15PM 53.6667 -66.5667 62° Northeast 490 564 35,000  Level Montreal Center
11:16PM 53.7167 -66.3500 69° East 490 564 35,000  Level Montreal Center
11:17PM 53.7333 -66.3167 50° Northeast 490 564 35,000  Level Gander Center
11:18PM 53.7667 -66.1167 74° East 490 564 35,000  Level Gander Center
11:19PM 53.8333 -65.9000 62° Northeast 490 564 35,000  Level Gander Center
11:20PM 53.8667 -65.6833 75° East 480 552 35,000  Level Gander Center
11:21PM 53.9333 -65.4500 64° Northeast 490 564 35,000  Level Gander Center
11:22PM 53.9667 -65.2667 73° East 490 564 35,000  Level Gander Center
11:23PM 54.0167 -65.0333 70° East 490 564 35,000  Level Gander Center
11:24PM 54.0667 -64.8167 68° East 490 564 35,000  Level Gander Center
11:25PM 54.1167 -64.6167 67° East 480 552 35,000  Level Gander Center
11:26PM 54.1667 -64.4000 68° East 490 564 35,000  Level Gander Center
11:27PM 54.2167 -64.1667 70° East 490 564 35,000  Level Gander Center
11:28PM 54.2500 -63.9500 75° East 480 552 35,000  Level Gander Center
11:29PM 54.3000 -63.7500 67° East 490 564 35,000  Level Gander Center
11:30PM 54.3500 -63.5167 70° East 480 552 35,000  Level Gander Center
11:31PM 54.4000 -63.3000 68° East 490 564 35,000  Level Gander Center
11:32PM 54.4500 -63.0667 70° East 490 564 35,000  Level Gander Center
11:33PM 54.4833 -62.8667 74° East 490 564 35,000  Level Gander Center
11:34PM 54.5167 -62.6667 74° East 490 564 35,000  Level Gander Center
11:35PM 54.5833 -62.4000 67° East 490 564 35,000  Level Gander Center
11:36PM 54.6167 -62.2000 74° East 490 564 35,000  Level Gander Center
11:37PM 54.6667 -61.9833 68° East 490 564 35,000  Level Gander Center
11:38PM 54.7167 -61.7500 70° East 490 564 35,000  Level Gander Center
11:39PM 54.7500 -61.5500 74° East 480 552 35,000  Level Gander Center
11:39PM 54.7667 -61.4333 76° East 480 552 35,000  Level Gander Center
11:40PM 54.8000 -61.3167 64° Northeast 480 552 35,000  Level Gander Center
11:41PM 54.8333 -61.1000 75° East 480 552 35,000  Level Gander Center
11:42PM 54.8833 -60.8833 68° East 480 552 35,000  Level Gander Center
11:43PM 54.9167 -60.6500 76° East 480 552 35,000  Level Gander Center
11:44PM 54.9500 -60.4333 75° East 490 564 35,000  Level Gander Center
11:45PM 55.0000 -60.2000 69° East 490 564 35,000  Level Gander Center
11:45PM 55.0167 -60.0667 78° East 490 564 35,000  Level Gander Center
11:46PM 55.0333 -59.9667 74° East 500 575 35,000  Level Gander Center
11:48PM 55.0858 -59.6533 74° East  Level FlightAware Approximate
11:50PM 55.2000 -59.0333 73° East 500 575 35,000  Level Gander Center
11:51PM 55.2500 -58.7833 71° East 500 575 35,000  Level Gander Center
11:52PM 55.2667 -58.5500 83° East 500 575 35,000  Level Gander Center
11:53PM 55.3167 -58.3500 66° East 500 575 35,000  Level Gander Center
11:54PM 55.3500 -58.0833 77° East 500 575 35,000  Level Gander Center
11:55PM 55.3469 -58.0994 73° East  Level FlightAware Approximate
11:55PM 55.3833 -57.8667 75° East 500 575 35,000  Level Gander Center
11:55PM 55.4000 -57.7167 79° East 500 575 35,000  Level Gander Center
11:56PM 55.4167 -57.6000 76° East 500 575 35,000  Level Gander Center
11:57PM 55.4500 -57.4000 74° East 500 575 35,000  Level Gander Center
11:58PM 55.4833 -57.1500 77° East 500 575 35,000  Level Gander Center
11:59PM 55.5333 -56.9167 69° East 510 587 35,000  Level Gander Center
12:00AM 55.5833 -56.6667 70° East 520 598 35,000  Level Gander Center
12:01AM 55.6333 -56.4333 69° East 530 610 35,000  Level Gander Center
12:02AM 55.7000 -56.1833 65° Northeast 520 598 35,000  Level Gander Center
12:03AM 55.7500 -55.9667 68° East 520 598 35,000  Level Gander Center
12:04AM 55.8167 -55.7167 65° Northeast 500 575 35,000  Level Gander Center
12:05AM 55.8667 -55.5000 68° East 490 564 35,000  Level Gander Center
12:06AM 55.9333 -55.2833 61° Northeast 480 552 35,000  Level Gander Center
12:07AM 55.9667 -55.0667 75° East 500 575 35,000  Level Gander Center
12:08AM 56.0000 -54.8500 75° East 510 587 35,000  Level Gander Center
12:09AM 56.0667 -54.6000 64° Northeast 510 587 35,000  Level Gander Center
12:10AM 56.1000 -54.3667 76° East 500 575 35,000  Level Gander Center
12:10AM 56.1167 -54.2000 80° East 510 587 35,000  Level Gander Center
12:11AM 56.1500 -54.1167 54° Northeast 520 598 35,000  Level Gander Center
12:12AM 56.2000 -53.8833 69° East 520 598 35,000  Level Gander Center
12:13AM 56.2500 -53.6333 70° East 520 598 35,000  Level Gander Center
12:14AM 56.3167 -53.4167 61° Northeast 520 598 35,000  Level Gander Center
12:15AM 56.3667 -53.1667 70° East 520 598 35,000  Level Gander Center
12:16AM 56.4167 -52.9167 70° East 520 598 35,000  Level Gander Center
12:17AM 56.4667 -52.6500 71° East 520 598 35,000  Level Gander Center
12:18AM 56.5167 -52.4000 70° East 520 598 35,000  Level Gander Center
12:20AM 56.6117 -51.9505 69° East  Level FlightAware Approximate
12:27AM 56.9365 -50.3324 69° East  Level FlightAware Approximate
12:28AM 56.9812 -50.0990 71° East  Level FlightAware Approximate
12:29AM 57.0189 -49.8614 76° East  Level FlightAware Approximate
12:30AM 57.0514 -49.6207 76° East  Level FlightAware Approximate
12:31AM 57.0834 -49.3797 76° East  Level FlightAware Approximate
12:32AM 57.1149 -49.1382 76° East  Level FlightAware Approximate
12:33AM 57.1460 -48.8964 77° East  Level FlightAware Approximate
12:34AM 57.1766 -48.6541 77° East  Level FlightAware Approximate
12:35AM 57.2079 -48.4120 76° East  Level FlightAware Approximate
12:36AM 57.2392 -48.1696 76° East  Level FlightAware Approximate
12:37AM 57.2700 -47.9268 77° East  Level FlightAware Approximate
12:38AM 57.3003 -47.6836 77° East  Level FlightAware Approximate
12:39AM 57.3302 -47.4400 77° East  Level FlightAware Approximate
12:40AM 57.3596 -47.1961 77° East  Level FlightAware Approximate
12:41AM 57.3885 -46.9517 78° East  Level FlightAware Approximate
12:42AM 57.4169 -46.7070 78° East  Level FlightAware Approximate
12:43AM 57.4449 -46.4618 78° East  Level FlightAware Approximate
12:44AM 57.4724 -46.2163 78° East  Level FlightAware Approximate
12:45AM 57.4994 -45.9705 78° East  Level FlightAware Approximate
12:46AM 57.5259 -45.7242 79° East  Level FlightAware Approximate
12:47AM 57.5520 -45.4776 79° East  Level FlightAware Approximate
12:48AM 57.5775 -45.2307 79° East  Level FlightAware Approximate
12:49AM 57.6026 -44.9834 79° East  Level FlightAware Approximate
12:50AM 57.6272 -44.7358 79° East  Level FlightAware Approximate
12:51AM 57.6513 -44.4878 80° East  Level FlightAware Approximate
12:52AM 57.6750 -44.2396 80° East  Level FlightAware Approximate
12:53AM 57.6981 -43.9910 80° East  Level FlightAware Approximate
12:54AM 57.7208 -43.7421 80° East  Level FlightAware Approximate
12:55AM 57.7430 -43.4928 80° East  Level FlightAware Approximate
12:56AM 57.7646 -43.2433 81° East  Level FlightAware Approximate
12:57AM 57.7858 -42.9935 81° East  Level FlightAware Approximate
12:58AM 57.8065 -42.7434 81° East  Level FlightAware Approximate
12:59AM 57.8267 -42.4930 81° East  Level FlightAware Approximate
01:00AM 57.8465 -42.2423 81° East  Level FlightAware Approximate
01:01AM 57.8657 -41.9914 82° East  Level FlightAware Approximate
01:02AM 57.8844 -41.7402 82° East  Level FlightAware Approximate
01:03AM 57.9026 -41.4887 82° East  Level FlightAware Approximate
01:04AM 57.9203 -41.2370 82° East  Level FlightAware Approximate
01:05AM 57.9376 -40.9850 83° East  Level FlightAware Approximate
01:06AM 57.9543 -40.7328 83° East  Level FlightAware Approximate
01:07AM 57.9705 -40.4804 83° East  Level FlightAware Approximate
01:08AM 57.9863 -40.2277 83° East  Level FlightAware Approximate
01:09AM 58.0010 -39.9748 86° East  Level FlightAware Approximate
01:10AM 58.0107 -39.7208 86° East  Level FlightAware Approximate
01:11AM 58.0198 -39.4668 86° East  Level FlightAware Approximate
01:12AM 58.0284 -39.2166 86° East  Level FlightAware Approximate
01:13AM 58.0364 -38.9664 86° East  Level FlightAware Approximate
01:14AM 58.0440 -38.7160 87° East  Level FlightAware Approximate
01:15AM 58.0510 -38.4656 87° East  Level FlightAware Approximate
01:16AM 58.0576 -38.2150 87° East  Level FlightAware Approximate
01:17AM 58.0637 -37.9644 87° East  Level FlightAware Approximate
01:18AM 58.0692 -37.7137 87° East  Level FlightAware Approximate
01:19AM 58.0743 -37.4629 88° East  Level FlightAware Approximate
01:20AM 58.0789 -37.2120 88° East  Level FlightAware Approximate
01:21AM 58.0830 -36.9611 88° East  Level FlightAware Approximate
01:22AM 58.0866 -36.7101 88° East  Level FlightAware Approximate
01:23AM 58.0898 -36.4591 89° East  Level FlightAware Approximate
01:24AM 58.0924 -36.2080 89° East  Level FlightAware Approximate
01:25AM 58.0945 -35.9569 89° East  Level FlightAware Approximate
01:26AM 58.0961 -35.7058 89° East  Level FlightAware Approximate
01:27AM 58.0973 -35.4547 89° East  Level FlightAware Approximate
01:28AM 58.0979 -35.2035 90° East  Level FlightAware Approximate
01:29AM 58.0981 -34.9523 90° East  Level FlightAware Approximate
01:30AM 58.0977 -34.7012 90° East  Level FlightAware Approximate
01:31AM 58.0969 -34.4500 90° East  Level FlightAware Approximate
01:32AM 58.0956 -34.1989 90° East  Level FlightAware Approximate
01:33AM 58.0938 -33.9478 91° East  Level FlightAware Approximate
01:34AM 58.0914 -33.6967 91° East  Level FlightAware Approximate
01:35AM 58.0886 -33.4456 91° East  Level FlightAware Approximate
01:36AM 58.0853 -33.1946 91° East  Level FlightAware Approximate
01:37AM 58.0815 -32.9436 92° East  Level FlightAware Approximate
01:38AM 58.0772 -32.6927 92° East  Level FlightAware Approximate
01:39AM 58.0725 -32.4419 92° East  Level FlightAware Approximate
01:40AM 58.0672 -32.1911 92° East  Level FlightAware Approximate
01:41AM 58.0614 -31.9405 92° East  Level FlightAware Approximate
01:42AM 58.0551 -31.6898 93° East  Level FlightAware Approximate
01:43AM 58.0484 -31.4393 93° East  Level FlightAware Approximate
01:44AM 58.0412 -31.1889 93° East  Level FlightAware Approximate
01:45AM 58.0334 -30.9386 93° East  Level FlightAware Approximate
01:46AM 58.0252 -30.6884 93° East  Level FlightAware Approximate
01:47AM 58.0164 -30.4375 94° East  Level FlightAware Approximate
01:48AM 58.0072 -30.1866 94° East  Level FlightAware Approximate
01:49AM 57.9962 -29.9361 96° East  Level FlightAware Approximate
01:50AM 57.9812 -29.6865 96° East  Level FlightAware Approximate
01:51AM 57.9658 -29.4370 97° East  Level FlightAware Approximate
01:52AM 57.9498 -29.1877 97° East  Level FlightAware Approximate
01:53AM 57.9333 -28.9387 97° East  Level FlightAware Approximate
01:54AM 57.9164 -28.6899 97° East  Level FlightAware Approximate
01:55AM 57.8989 -28.4414 97° East  Level FlightAware Approximate
01:56AM 57.8810 -28.1931 98° East  Level FlightAware Approximate
01:57AM 57.8626 -27.9450 98° East  Level FlightAware Approximate
01:58AM 57.8437 -27.6972 98° East  Level FlightAware Approximate
01:59AM 57.8243 -27.4497 98° East  Level FlightAware Approximate
02:00AM 57.8045 -27.2024 98° East  Level FlightAware Approximate
02:01AM 57.7841 -26.9554 99° East  Level FlightAware Approximate
02:02AM 57.7633 -26.7087 99° East  Level FlightAware Approximate
02:03AM 57.7420 -26.4623 99° East  Level FlightAware Approximate
02:04AM 57.7202 -26.2162 99° East  Level FlightAware Approximate
02:05AM 57.6980 -25.9703 100° East  Level FlightAware Approximate
02:06AM 57.6753 -25.7248 100° East  Level FlightAware Approximate
02:07AM 57.6512 -25.4799 101° East  Level FlightAware Approximate
02:08AM 57.6263 -25.2354 101° East  Level FlightAware Approximate
02:09AM 57.6008 -24.9913 101° East  Level FlightAware Approximate
02:10AM 57.5749 -24.7476 101° East  Level FlightAware Approximate
02:11AM 57.5485 -24.5042 101° East  Level FlightAware Approximate
02:12AM 57.5216 -24.2611 102° East  Level FlightAware Approximate
02:13AM 57.4957 -24.0179 101° East  Level FlightAware Approximate
02:14AM 57.4695 -23.7750 101° East  Level FlightAware Approximate
02:15AM 57.4429 -23.5323 101° East  Level FlightAware Approximate
02:16AM 57.4159 -23.2901 102° East  Level FlightAware Approximate
02:17AM 57.3884 -23.0481 102° East  Level FlightAware Approximate
02:18AM 57.3606 -22.8065 102° East  Level FlightAware Approximate
02:19AM 57.3323 -22.5653 102° East  Level FlightAware Approximate
02:20AM 57.3036 -22.3244 102° East  Level FlightAware Approximate
02:21AM 57.2744 -22.0839 103° East  Level FlightAware Approximate
02:22AM 57.2447 -21.8438 103° East  Level FlightAware Approximate
02:23AM 57.2146 -21.6037 103° East  Level FlightAware Approximate
02:24AM 57.1839 -21.3640 103° East  Level FlightAware Approximate
02:25AM 57.1529 -21.1246 103° East  Level FlightAware Approximate
02:26AM 57.1213 -20.8857 104° East  Level FlightAware Approximate
02:27AM 57.0894 -20.6471 104° East  Level FlightAware Approximate
02:28AM 57.0569 -20.4090 104° East  Level FlightAware Approximate
02:29AM 57.0240 -20.1713 104° East  Level FlightAware Approximate
02:30AM 56.9850 -19.9377 114° Southeast  Level FlightAware Approximate
02:31AM 56.9309 -19.7140 114° Southeast  Level FlightAware Approximate
02:32AM 56.8763 -19.4910 114° Southeast  Level FlightAware Approximate
02:33AM 56.8214 -19.2686 114° Southeast  Level FlightAware Approximate
02:34AM 56.7661 -19.0469 114° Southeast  Level FlightAware Approximate
02:35AM 56.7104 -18.8259 115° Southeast  Level FlightAware Approximate
02:36AM 56.6543 -18.6055 115° Southeast  Level FlightAware Approximate
02:37AM 56.5978 -18.3857 115° Southeast  Level FlightAware Approximate
02:38AM 56.5409 -18.1666 115° Southeast  Level FlightAware Approximate
02:39AM 56.4836 -17.9482 115° Southeast  Level FlightAware Approximate
02:40AM 56.4259 -17.7304 116° Southeast  Level FlightAware Approximate
02:41AM 56.3679 -17.5133 116° Southeast  Level FlightAware Approximate
02:42AM 56.3095 -17.2969 116° Southeast  Level FlightAware Approximate
02:43AM 56.2507 -17.0811 116° Southeast  Level FlightAware Approximate
02:44AM 56.1915 -16.8656 116° Southeast  Level FlightAware Approximate
02:45AM 56.1318 -16.6508 116° Southeast  Level FlightAware Approximate
02:46AM 56.0718 -16.4366 117° Southeast  Level FlightAware Approximate
02:47AM 56.0114 -16.2231 117° Southeast  Level FlightAware Approximate
02:48AM 55.9507 -16.0103 117° Southeast  Level FlightAware Approximate
02:49AM 55.8896 -15.7981 117° Southeast  Level FlightAware Approximate
02:50AM 55.8281 -15.5866 117° Southeast  Level FlightAware Approximate
02:51AM 55.7663 -15.3758 117° Southeast  Level FlightAware Approximate
02:52AM 55.7041 -15.1657 118° Southeast  Level FlightAware Approximate
02:53AM 55.6415 -14.9562 118° Southeast  Level FlightAware Approximate
02:54AM 55.5786 -14.7474 118° Southeast  Level FlightAware Approximate
02:55AM 55.5153 -14.5392 118° Southeast  Level FlightAware Approximate
02:56AM 55.4517 -14.3318 118° Southeast  Level FlightAware Approximate
02:57AM 55.3878 -14.1250 119° Southeast  Level FlightAware Approximate
02:58AM 55.3234 -13.9188 119° Southeast  Level FlightAware Approximate
02:59AM 55.2588 -13.7134 119° Southeast  Level FlightAware Approximate
03:00AM 55.1938 -13.5086 119° Southeast  Level FlightAware Approximate
03:01AM 55.1284 -13.3045 119° Southeast  Level FlightAware Approximate
03:02AM 55.0628 -13.1010 119° Southeast  Level FlightAware Approximate
03:03AM 54.9967 -12.8982 120° Southeast  Level FlightAware Approximate
03:04AM 54.9304 -12.6961 120° Southeast  Level FlightAware Approximate
03:05AM 54.8637 -12.4947 120° Southeast  Level FlightAware Approximate
03:06AM 54.7967 -12.2939 120° Southeast  Level FlightAware Approximate
03:07AM 54.7293 -12.0938 120° Southeast  Level FlightAware Approximate
03:08AM 54.6616 -11.8943 120° Southeast  Level FlightAware Approximate
03:09AM 54.5936 -11.6955 121° Southeast  Level FlightAware Approximate
03:10AM 54.5253 -11.4974 121° Southeast  Level FlightAware Approximate
03:11AM 54.4566 -11.2999 121° Southeast  Level FlightAware Approximate
03:11AM 53.8976 -8.9835 121° Southeast 462 532 35,500  Level FlightAware UK
03:12AM 53.8733 -8.9291 127° Southeast 460 529 35,500  Level FlightAware UK
03:12AM 53.8490 -8.8745 127° Southeast 462 532 35,500  Level FlightAware UK
03:12AM 53.8248 -8.8201 127° Southeast 462 532 35,500  Level FlightAware UK
03:13AM 53.8003 -8.7656 127° Southeast 462 532 35,500  Level FlightAware UK
03:13AM 53.7760 -8.7118 127° Southeast 462 532 35,500  Level FlightAware UK
03:13AM 53.7517 -8.6579 127° Southeast 462 532 35,500  Level FlightAware UK
03:13AM 53.7274 -8.6043 127° Southeast 462 532 35,500  Level FlightAware UK
03:14AM 53.7031 -8.5508 127° Southeast 462 532 35,500  Level FlightAware UK
03:14AM 53.6788 -8.4972 127° Southeast 462 532 35,500  Level FlightAware UK
03:14AM 53.6542 -8.4433 128° Southeast 460 529 35,500  Level FlightAware UK
03:15AM 53.6300 -8.3902 128° Southeast 460 529 35,500  Level FlightAware UK
03:15AM 53.6057 -8.3370 128° Southeast 460 529 35,500  Level FlightAware UK
03:15AM 53.5814 -8.2840 128° Southeast 460 529 35,500  Level FlightAware UK
03:16AM 53.5570 -8.2310 128° Southeast 460 529 35,500  Level FlightAware UK
03:16AM 53.5326 -8.1779 128° Southeast 460 529 35,500  Level FlightAware UK
03:16AM 53.5081 -8.1250 128° Southeast 460 529 35,500  Level FlightAware UK
03:16AM 53.4837 -8.0722 128° Southeast 458 527 35,500  Level FlightAware UK
03:17AM 53.4592 -8.0195 128° Southeast 458 527 35,500  Level FlightAware UK
03:17AM 53.4347 -7.9667 128° Southeast 458 527 35,500  Level FlightAware UK
03:17AM 53.4102 -7.9140 128° Southeast 460 529 35,500  Level FlightAware UK
03:18AM 53.3856 -7.8611 128° Southeast 460 529 35,500  Level FlightAware UK
03:18AM 53.3611 -7.8083 128° Southeast 462 532 35,500  Level FlightAware UK
03:18AM 53.3366 -7.7556 128° Southeast 462 532 35,500  Level FlightAware UK
03:19AM 53.3119 -7.7031 128° Southeast 464 534 35,500  Level FlightAware UK
03:19AM 53.2873 -7.6506 128° Southeast 462 532 35,500  Level FlightAware UK
03:19AM 53.2625 -7.5981 128° Southeast 462 532 35,500  Level FlightAware UK
03:19AM 53.2377 -7.5455 128° Southeast 462 532 35,500  Level FlightAware UK
03:20AM 53.2129 -7.4930 128° Southeast 462 532 35,500  Level FlightAware UK
03:20AM 53.1881 -7.4406 128° Southeast 464 534 35,500  Level FlightAware UK
03:20AM 53.1632 -7.3881 128° Southeast 464 534 35,500  Level FlightAware UK
03:21AM 53.1383 -7.3356 128° Southeast 466 536 35,500  Level FlightAware UK
03:21AM 53.1134 -7.2832 128° Southeast 468 539 35,500  Level FlightAware UK
03:21AM 53.0884 -7.2309 128° Southeast 468 539 35,500  Level FlightAware UK
03:22AM 53.0633 -7.1778 128° Southeast 468 539 35,500  Level FlightAware UK
03:22AM 53.0383 -7.1258 129° Southeast 470 541 35,500  Level FlightAware UK
03:22AM 53.0132 -7.0737 129° Southeast 470 541 35,500  Level FlightAware UK
03:22AM 52.9882 -7.0218 129° Southeast 470 541 35,500  Level FlightAware UK
03:23AM 52.9632 -6.9699 129° Southeast 468 539 35,500  Level FlightAware UK
03:23AM 52.9382 -6.9181 129° Southeast 466 536 35,500  Level FlightAware UK
03:23AM 52.9133 -6.8664 129° Southeast 468 539 35,500  Level FlightAware UK
03:24AM 52.8883 -6.8149 129° Southeast 468 539 35,500  Level FlightAware UK
03:24AM 52.8634 -6.7633 129° Southeast 468 539 35,500  Level FlightAware UK
03:24AM 52.8384 -6.7120 129° Southeast 470 541 35,500  Level FlightAware UK
03:25AM 52.8133 -6.6610 129° Southeast 468 539 35,500  Level FlightAware UK
03:25AM 52.7882 -6.6099 129° Southeast 466 536 35,500  Level FlightAware UK
03:25AM 52.7632 -6.5590 129° Southeast 468 539 35,500  Level FlightAware UK
03:25AM 52.7382 -6.5081 129° Southeast 466 536 35,500  Level FlightAware UK
03:26AM 52.7132 -6.4573 129° Southeast 466 536 35,500  Level FlightAware UK
03:26AM 52.6883 -6.4066 129° Southeast 466 536 35,500  Level FlightAware UK
03:26AM 52.6633 -6.3561 129° Southeast 468 539 35,500  Level FlightAware UK
03:27AM 52.6385 -6.3057 129° Southeast 468 539 35,500  Level FlightAware UK
03:27AM 52.6135 -6.2554 129° Southeast 468 539 35,500  Level FlightAware UK
03:27AM 52.5886 -6.2054 129° Southeast 466 536 35,500  Level FlightAware UK
03:28AM 52.5637 -6.1555 129° Southeast 466 536 35,500  Level FlightAware UK
03:28AM 52.5388 -6.1057 129° Southeast 464 534 35,500  Level FlightAware UK
03:28AM 52.5139 -6.0561 129° Southeast 464 534 35,500  Level FlightAware UK
03:28AM 52.4890 -6.0067 130° Southeast 466 536 35,500  Level FlightAware UK
03:29AM 52.4640 -5.9568 129° Southeast 466 536 35,500  Level FlightAware UK
03:29AM 52.4394 -5.9075 129° Southeast 464 534 35,500  Level FlightAware UK
03:29AM 52.4147 -5.8584 129° Southeast 464 534 35,500  Level FlightAware UK
03:30AM 52.3900 -5.8097 130° Southeast 464 534 35,500  Level FlightAware UK
03:30AM 52.3653 -5.7611 130° Southeast 464 534 35,500  Level FlightAware UK
03:30AM 52.3407 -5.7127 130° Southeast 464 534 35,500  Level FlightAware UK
03:31AM 52.2916 -5.6161 130° Southeast 462 532 35,500  Level FlightAware UK
03:31AM 52.2508 -5.5362 130° Southeast 464 534 35,500  Level FlightAware UK
03:32AM 52.2263 -5.4884 130° Southeast 462 532 35,500  Level FlightAware UK
03:32AM 52.2019 -5.4406 130° Southeast 462 532 35,500  Level FlightAware UK
03:32AM 52.1774 -5.3931 130° Southeast 462 532 35,500  Level FlightAware UK
03:33AM 52.1530 -5.3456 130° Southeast 460 529 35,500  Level FlightAware UK
03:33AM 52.1286 -5.2984 130° Southeast 460 529 35,500  Level FlightAware UK
03:33AM 52.0799 -5.2042 130° Southeast 456 525 35,500  Level FlightAware UK
03:34AM 52.0556 -5.1572 130° Southeast 456 525 35,500  Level FlightAware UK
03:34AM 52.0313 -5.1104 130° Southeast 458 527 35,500  Level FlightAware UK
03:34AM 52.0088 -5.0608 126° Southeast 458 527 35,500  Level FlightAware UK
03:35AM 51.9926 -5.0060 116° Southeast 458 527 35,500  Level FlightAware UK
03:35AM 51.9821 -4.9467 106° East 458 527 35,500  Level FlightAware UK
03:35AM 51.9728 -4.8869 104° East 460 529 35,500  Level FlightAware UK
03:36AM 51.9585 -4.8084 106° East 462 532 35,500  Level FlightAware UK
03:36AM 51.9448 -4.7292 106° East 462 532 35,500  Level FlightAware UK
03:36AM 51.9348 -4.6697 105° East 458 527 35,500  Level FlightAware UK
03:37AM 51.9128 -4.5310 104° East 460 529 35,500  Level FlightAware UK
03:37AM 51.8999 -4.4513 105° East 456 525 35,500  Level FlightAware UK
03:38AM 51.8872 -4.3723 105° East 456 525 35,500  Level FlightAware UK
03:38AM 51.8777 -4.3131 105° East 458 527 35,500  Level FlightAware UK
03:38AM 51.8681 -4.2540 105° East 458 527 35,500  Level FlightAware UK
03:39AM 51.8584 -4.1950 105° East 458 527 35,500  Level FlightAware UK
03:40AM 51.8289 -4.0184 105° East 456 525 35,500  Level FlightAware UK
03:40AM 51.8192 -3.9596 105° East 458 527 35,500  Level FlightAware UK
03:40AM 51.8093 -3.9008 105° East 456 525 35,500  Level FlightAware UK
03:41AM 51.7928 -3.8030 105° East 456 525 35,500  Level FlightAware UK
03:41AM 51.7827 -3.7437 105° East 456 525 35,500  Level FlightAware UK
03:42AM 51.7626 -3.6264 105° East 454 522 35,500  Level FlightAware UK
03:42AM 51.7525 -3.5679 106° East 454 522 35,500  Level FlightAware UK
03:43AM 51.7292 -3.4311 105° East 460 529 35,500  Level FlightAware UK
03:43AM 51.7191 -3.3724 106° East 458 527 35,500  Level FlightAware UK
03:43AM 51.7019 -3.2747 106° East 454 522 35,500  Level FlightAware UK
03:44AM 51.6847 -3.1763 106° East 458 527 35,500  Level FlightAware UK
03:44AM 51.6744 -3.1176 106° East 458 527 35,500  Level FlightAware UK
03:45AM 51.6640 -3.0588 106° East 464 534 35,500  Level FlightAware UK
03:45AM 51.6536 -3.0000 106° East 464 534 35,500  Level FlightAware UK
03:45AM 51.6363 -2.9012 106° East 464 534 35,500  Level FlightAware UK
03:46AM 51.6046 -2.7249 106° East 464 534 35,500  Level FlightAware UK
03:47AM 51.5761 -2.5675 106° East 466 536 35,500  Level FlightAware UK
03:47AM 51.5656 -2.5095 106° East 466 536 35,500  Level FlightAware UK
03:48AM 51.5548 -2.4502 106° East 466 536 35,500  Level FlightAware UK
03:48AM 51.5426 -2.3927 109° East 466 536 35,500  Level FlightAware UK
03:48AM 51.5189 -2.2990 112° Southeast 466 536 35,500  Level FlightAware UK
03:49AM 51.5031 -2.2434 114° Southeast 466 536 35,500  Level FlightAware UK
03:49AM 51.4766 -2.1531 115° Southeast 466 536 35,500  Level FlightAware UK
03:50AM 51.4435 -2.0434 116° Southeast 462 532 35,500  Level FlightAware UK
03:50AM 51.4162 -1.9538 116° Southeast 462 532 35,500  Level FlightAware UK
03:51AM 51.3941 -1.8810 116° Southeast 460 529 35,500  Level FlightAware UK
03:52AM 51.3553 -1.7549 116° Southeast 460 529 35,500  Level FlightAware UK
03:52AM 51.3387 -1.7011 116° Southeast 460 529 35,500  Level FlightAware UK
03:52AM 51.3168 -1.6295 116° Southeast 458 527 35,500  Level FlightAware UK
03:53AM 51.3003 -1.5758 116° Southeast 460 529 35,500  Level FlightAware UK
03:53AM 51.2725 -1.4860 116° Southeast 460 529 35,500  Level FlightAware UK
03:53AM 51.2560 -1.4324 116° Southeast 458 527 35,500  Level FlightAware UK
03:54AM 51.2283 -1.3434 116° Southeast 458 527 35,500  Level FlightAware UK
03:54AM 51.1949 -1.2368 117° Southeast 464 534 35,500  Level FlightAware UK
03:55AM 51.1782 -1.1834 117° Southeast 466 536 35,500  Level FlightAware UK
03:55AM 51.1504 -1.0939 116° Southeast 464 534 35,500  Level FlightAware UK
03:56AM 51.1339 -1.0406 116° Southeast 462 532 35,500  Level FlightAware UK
03:56AM 51.1005 -0.9345 117° Southeast 460 529 35,500  Level FlightAware UK
03:57AM 51.0669 -0.8281 117° Southeast 460 529 35,500  Level FlightAware UK
03:57AM 51.0502 -0.7753 117° Southeast 460 529 35,500  Level FlightAware UK
03:58AM 51.0111 -0.6516 117° Southeast 462 532 35,500  Level FlightAware UK
03:58AM 50.9831 -0.5640 117° Southeast 460 529 35,500  Level FlightAware UK
03:59AM 50.9663 -0.5116 117° Southeast 460 529 35,500  Level FlightAware UK
03:59AM 50.9438 -0.4416 117° Southeast 462 532 35,500 -240 Level FlightAware UK
03:59AM 50.9162 -0.3550 117° Southeast 454 522 35,300 -1,500 Descending FlightAware UK
04:01AM 50.8452 -0.1357 117° Southeast 464 534 32,800 -2,100 Descending FlightAware UK
04:01AM 50.8286 -0.0849 117° Southeast 462 532 32,000 -2,280 Descending FlightAware UK
04:02AM 50.7956 0.0169 117° Southeast 474 545 30,800 -1,920 Descending FlightAware UK
04:02AM 50.7793 0.0659 118° Southeast 468 539 30,300 -2,040 Descending FlightAware UK
04:02AM 50.7608 0.1111 123° Southeast 470 541 29,600 -1,680 Descending FlightAware UK
04:03AM 50.7232 0.1704 135° Southeast 452 520 29,000 -1,260 Descending FlightAware UK
04:03AM 50.7003 0.2009 140° Southeast 440 506 28,600 -1,200 Descending FlightAware UK
04:03AM 50.6780 0.2292 141° Southeast 430 495 28,300 -840 Descending FlightAware UK
04:04AM 50.6562 0.2563 142° Southeast 426 490 28,100 -780 Descending FlightAware UK
04:04AM 50.6123 0.3115 141° Southeast 426 490 27,600 -900 Descending FlightAware UK
04:05AM 50.5905 0.3390 141° Southeast 424 488 27,300 -900 Descending FlightAware UK
04:05AM 50.5614 0.3758 141° Southeast 424 488 27,000 -900 Descending FlightAware UK
04:05AM 50.5397 0.4036 141° Southeast 422 486 26,700 -840 Descending FlightAware UK
04:06AM 50.5177 0.4318 141° Southeast 422 486 26,500 -840 Descending FlightAware UK
04:06AM 50.4962 0.4593 141° Southeast 420 483 26,200 -1,020 Descending FlightAware UK
04:06AM 50.4745 0.4869 141° Southeast 418 481 25,900 -840 Descending FlightAware UK
04:06AM 50.4528 0.5144 141° Southeast 416 479 25,700 -900 Descending FlightAware UK
04:07AM 50.4239 0.5510 141° Southeast 414 476 25,300 -900 Descending FlightAware UK
04:07AM 50.4022 0.5781 142° Southeast 412 474 25,100 -900 Descending FlightAware UK
04:08AM 50.3660 0.6234 141° Southeast 410 472 24,600 -900 Descending FlightAware UK
04:08AM 50.3440 0.6509 141° Southeast 410 472 24,400 -180 Descending FlightAware UK
04:08AM 50.3224 0.6783 141° Southeast 408 470 24,500 120 Climbing FlightAware UK
04:09AM 50.3007 0.7055 141° Southeast 408 470 24,500  Level FlightAware UK
04:09AM 50.2790 0.7328 141° Southeast 410 472 24,500  Level FlightAware UK
04:09AM 50.2572 0.7599 141° Southeast 410 472 24,500  Level FlightAware UK
04:09AM 50.2355 0.7873 141° Southeast 410 472 24,500  Level FlightAware UK
04:10AM 50.2062 0.8238 141° Southeast 408 470 24,500  Level FlightAware UK
04:10AM 50.1631 0.8777 141° Southeast 408 470 24,500 -480 Level FlightAware UK
04:11AM 50.1412 0.9049 141° Southeast 404 465 24,100 -2,040 Descending FlightAware UK
04:11AM 50.1196 0.9315 142° Southeast 402 463 23,300 -2,160 Descending FlightAware UK
04:11AM 50.0913 0.9666 141° Southeast 396 456 22,600 -1,620 Descending FlightAware UK
04:12AM 50.0701 0.9926 142° Southeast 396 456 22,200 -1,380 Descending FlightAware UK
04:12AM 50.0488 1.0188 142° Southeast 398 458 21,800 -1,380 Descending FlightAware UK
04:13AM 50.0066 1.0711 141° Southeast 384 442 21,000 -1,380 Descending FlightAware UK
04:13AM 49.9860 1.0962 142° Southeast 382 440 20,600 -1,380 Descending FlightAware UK
04:13AM 49.9649 1.1219 142° Southeast 386 444 20,200 -1,320 Descending FlightAware UK
04:14AM 49.9433 1.1485 142° Southeast 386 444 19,800 -1,320 Descending FlightAware UK
04:14AM 49.9133 1.1777 148° Southeast 378 435 19,300 -1,260 Descending FlightAware UK
04:14AM 49.8735 1.2046 156° South 372 428 18,700 -1,260 Descending FlightAware UK
04:15AM 49.8492 1.2205 157° South 372 428 18,300 -1,380 Descending FlightAware UK
04:15AM 49.8245 1.2364 157° South 374 430 17,900 -1,440 Descending FlightAware UK
04:15AM 49.7913 1.2577 157° South 368 423 17,300 -1,440 Descending FlightAware UK
04:16AM 49.7662 1.2736 158° South 364 419 16,900 -1,380 Descending FlightAware UK
04:16AM 49.7413 1.2898 157° South 364 419 16,500 -1,320 Descending FlightAware UK
04:16AM 49.7079 1.3113 157° South 362 417 16,000 -1,320 Descending FlightAware UK
04:17AM 49.6829 1.3273 157° South 358 412 15,600 -1,380 Descending FlightAware UK
04:17AM 49.6579 1.3433 158° South 354 407 15,200 -1,320 Descending FlightAware UK
04:17AM 49.6252 1.3640 158° South 350 403 14,700 -1,320 Descending FlightAware UK
04:18AM 49.6008 1.3799 157° South 350 403 14,300 -1,380 Descending FlightAware UK
04:19AM 49.5345 1.4224 157° South 342 394 13,200 -1,440 Descending FlightAware UK
04:19AM 49.5010 1.4439 157° South 344 396 12,600 -1,440 Descending FlightAware UK
04:19AM 49.4759 1.4599 157° South 340 391 12,200 -1,380 Descending FlightAware UK
04:20AM 49.4511 1.4753 158° South 338 389 11,800 -1,320 Descending FlightAware UK
04:20AM 49.4179 1.4959 158° South 334 384 11,300 -1,260 Descending FlightAware UK
04:20AM 49.3850 1.5168 158° South 330 380 10,800 -1,260 Descending FlightAware UK
04:21AM 49.3544 1.5367 157° South 320 368 10,300 -1,080 Descending FlightAware UK
04:22AM 49.2973 1.6276 134° Southeast 292 336 9,200 -960 Descending FlightAware UK
04:22AM 49.2951 1.6639 95° East 290 334 9,000 -780 Descending FlightAware UK
04:23AM 49.2927 1.7246 93° East 280 322 8,600 -720 Descending FlightAware UK
04:23AM 49.2840 1.7691 107° East 270 311 8,400 -540 Descending FlightAware UK
04:25AM 49.1989 2.0167 118° Southeast  Level Estimated
04:32AM 49.0128 2.5500 118° Southeast  Level Estimated
04:33AM 49.0128 2.5500 180° South  Level Estimated
04:34AM 49.0128 2.5500 180° South  Level Estimated
04:35AM 49.0128 2.5500 180° South  Level Estimated